sim
Sign-in with your pilot id or email,
or register
Callsign
Passwort

Schedule Details

Flight Number: RYR964
Departure: London Stansted Airport (EGSS) at 18:45
Arrival: Gothenburg Landvetter Airport (ESGG) at 20:40
Route: Ryanair Passenger Schedule. Enter filed route here before submitting Pirep.

Weather Information
Getting current METAR information for EGSS 200220Z AUTO 15011KT 9999 NCD 11/08 Q1003
Getting current METAR information for ESGG 200220Z 14010KT 9999 SCT036 BKN048 04/03 Q1015

Schedule Frequency

Route Map